sensor_id;sensor_type;location;lat;lon;timestamp;P1;durP1;ratioP1;P2;durP2;ratioP2
37891;SDS011;45797;47.466;9.486;2023-02-28T00:01:28;3.00;;;1.60;;
37891;SDS011;45797;47.466;9.486;2023-02-28T00:11:33;3.30;;;1.80;;
37891;SDS011;45797;47.466;9.486;2023-02-28T00:16:35;4.77;;;2.23;;
37891;SDS011;45797;47.466;9.486;2023-02-28T00:21:37;4.50;;;2.13;;
37891;SDS011;45797;47.466;9.486;2023-02-28T00:26:42;5.97;;;2.13;;
37891;SDS011;45797;47.466;9.486;2023-02-28T00:31:44;6.13;;;2.63;;
37891;SDS011;45797;47.466;9.486;2023-02-28T00:36:45;5.07;;;1.83;;
37891;SDS011;45797;47.466;9.486;2023-02-28T00:41:51;5.90;;;2.47;;
37891;SDS011;45797;47.466;9.486;2023-02-28T00:46:51;4.47;;;2.00;;
37891;SDS011;45797;47.466;9.486;2023-02-28T00:57:15;3.80;;;1.80;;
37891;SDS011;45797;47.466;9.486;2023-02-28T01:02:31;5.27;;;2.13;;
37891;SDS011;45797;47.466;9.486;2023-02-28T01:07:32;5.67;;;2.00;;
37891;SDS011;45797;47.466;9.486;2023-02-28T01:12:38;3.60;;;1.63;;
37891;SDS011;45797;47.466;9.486;2023-02-28T01:17:38;3.40;;;1.97;;
37891;SDS011;45797;47.466;9.486;2023-02-28T01:27:51;5.03;;;1.80;;
37891;SDS011;45797;47.466;9.486;2023-02-28T01:32:54;3.83;;;2.27;;
37891;SDS011;45797;47.466;9.486;2023-02-28T01:37:56;4.97;;;1.90;;
37891;SDS011;45797;47.466;9.486;2023-02-28T01:42:57;3.33;;;1.50;;
37891;SDS011;45797;47.466;9.486;2023-02-28T01:48:04;4.00;;;1.70;;
37891;SDS011;45797;47.466;9.486;2023-02-28T01:53:16;8.73;;;2.27;;
37891;SDS011;45797;47.466;9.486;2023-02-28T01:58:26;3.07;;;2.07;;
37891;SDS011;45797;47.466;9.486;2023-02-28T02:08:30;4.40;;;2.10;;
37891;SDS011;45797;47.466;9.486;2023-02-28T02:19:24;3.87;;;1.67;;
37891;SDS011;45797;47.466;9.486;2023-02-28T02:36:05;3.80;;;1.97;;
37891;SDS011;45797;47.466;9.486;2023-02-28T02:41:32;4.37;;;1.90;;
37891;SDS011;45797;47.466;9.486;2023-02-28T02:46:45;4.57;;;2.80;;
37891;SDS011;45797;47.466;9.486;2023-02-28T02:51:48;4.07;;;2.43;;
37891;SDS011;45797;47.466;9.486;2023-02-28T02:57:05;4.20;;;2.00;;
37891;SDS011;45797;47.466;9.486;2023-02-28T03:07:28;4.20;;;2.33;;
37891;SDS011;45797;47.466;9.486;2023-02-28T03:12:47;3.20;;;1.93;;
37891;SDS011;45797;47.466;9.486;2023-02-28T03:18:10;4.27;;;1.80;;
37891;SDS011;45797;47.466;9.486;2023-02-28T03:28:51;2.77;;;1.50;;
37891;SDS011;45797;47.466;9.486;2023-02-28T03:34:04;5.90;;;2.13;;
37891;SDS011;45797;47.466;9.486;2023-02-28T03:39:16;7.27;;;2.20;;
37891;SDS011;45797;47.466;9.486;2023-02-28T03:49:42;3.13;;;1.80;;
37891;SDS011;45797;47.466;9.486;2023-02-28T03:54:52;7.87;;;2.50;;
37891;SDS011;45797;47.466;9.486;2023-02-28T04:00:06;4.27;;;1.90;;
37891;SDS011;45797;47.466;9.486;2023-02-28T04:05:13;5.47;;;2.70;;
37891;SDS011;45797;47.466;9.486;2023-02-28T04:10:14;4.77;;;1.93;;
37891;SDS011;45797;47.466;9.486;2023-02-28T04:15:18;3.77;;;2.03;;
37891;SDS011;45797;47.466;9.486;2023-02-28T04:25:32;5.30;;;2.23;;
37891;SDS011;45797;47.466;9.486;2023-02-28T04:30:35;3.23;;;2.03;;
37891;SDS011;45797;47.466;9.486;2023-02-28T04:35:43;4.67;;;2.40;;
37891;SDS011;45797;47.466;9.486;2023-02-28T04:40:52;6.13;;;2.30;;
37891;SDS011;45797;47.466;9.486;2023-02-28T04:45:55;3.60;;;1.90;;
37891;SDS011;45797;47.466;9.486;2023-02-28T04:51:09;4.23;;;2.10;;
37891;SDS011;45797;47.466;9.486;2023-02-28T04:56:13;4.10;;;2.57;;
37891;SDS011;45797;47.466;9.486;2023-02-28T05:01:23;3.57;;;1.80;;
37891;SDS011;45797;47.466;9.486;2023-02-28T05:06:31;3.87;;;2.23;;
37891;SDS011;45797;47.466;9.486;2023-02-28T05:16:39;4.13;;;1.73;;
37891;SDS011;45797;47.466;9.486;2023-02-28T05:21:54;3.63;;;1.53;;
37891;SDS011;45797;47.466;9.486;2023-02-28T05:26:55;4.93;;;2.43;;
37891;SDS011;45797;47.466;9.486;2023-02-28T05:31:56;4.17;;;2.33;;
37891;SDS011;45797;47.466;9.486;2023-02-28T05:36:57;5.13;;;2.30;;
37891;SDS011;45797;47.466;9.486;2023-02-28T05:41:58;4.87;;;2.27;;
37891;SDS011;45797;47.466;9.486;2023-02-28T05:46:58;6.37;;;2.37;;
37891;SDS011;45797;47.466;9.486;2023-02-28T05:52:08;4.13;;;2.20;;
37891;SDS011;45797;47.466;9.486;2023-02-28T05:57:10;5.40;;;2.30;;
37891;SDS011;45797;47.466;9.486;2023-02-28T06:02:15;4.37;;;2.40;;
37891;SDS011;45797;47.466;9.486;2023-02-28T06:07:18;5.07;;;2.27;;
37891;SDS011;45797;47.466;9.486;2023-02-28T06:12:18;3.80;;;2.37;;
37891;SDS011;45797;47.466;9.486;2023-02-28T06:17:22;4.63;;;2.37;;
37891;SDS011;45797;47.466;9.486;2023-02-28T06:27:43;8.27;;;2.37;;
37891;SDS011;45797;47.466;9.486;2023-02-28T06:32:53;5.27;;;2.13;;
37891;SDS011;45797;47.466;9.486;2023-02-28T06:37:54;4.30;;;2.77;;
37891;SDS011;45797;47.466;9.486;2023-02-28T06:48:01;4.27;;;2.30;;
37891;SDS011;45797;47.466;9.486;2023-02-28T06:53:04;4.57;;;2.10;;
37891;SDS011;45797;47.466;9.486;2023-02-28T06:58:11;4.60;;;2.53;;
37891;SDS011;45797;47.466;9.486;2023-02-28T07:03:14;6.80;;;2.57;;
37891;SDS011;45797;47.466;9.486;2023-02-28T07:08:16;3.97;;;2.03;;
37891;SDS011;45797;47.466;9.486;2023-02-28T07:13:32;5.90;;;2.73;;
37891;SDS011;45797;47.466;9.486;2023-02-28T07:18:32;4.70;;;2.27;;
37891;SDS011;45797;47.466;9.486;2023-02-28T07:23:41;3.80;;;2.20;;
37891;SDS011;45797;47.466;9.486;2023-02-28T07:28:42;3.83;;;1.83;;
37891;SDS011;45797;47.466;9.486;2023-02-28T07:33:52;4.00;;;2.30;;
37891;SDS011;45797;47.466;9.486;2023-02-28T07:38:53;4.07;;;2.07;;
37891;SDS011;45797;47.466;9.486;2023-02-28T07:43:54;4.00;;;2.13;;
37891;SDS011;45797;47.466;9.486;2023-02-28T07:54:02;3.87;;;2.30;;
37891;SDS011;45797;47.466;9.486;2023-02-28T07:59:05;5.03;;;2.67;;
37891;SDS011;45797;47.466;9.486;2023-02-28T08:09:21;6.00;;;1.87;;
37891;SDS011;45797;47.466;9.486;2023-02-28T08:14:22;4.70;;;2.47;;
37891;SDS011;45797;47.466;9.486;2023-02-28T08:19:23;4.67;;;2.40;;
37891;SDS011;45797;47.466;9.486;2023-02-28T08:24:25;3.80;;;2.00;;
37891;SDS011;45797;47.466;9.486;2023-02-28T08:50:12;6.90;;;3.40;;
37891;SDS011;45797;47.466;9.486;2023-02-28T09:00:21;3.97;;;2.27;;
37891;SDS011;45797;47.466;9.486;2023-02-28T09:05:24;5.00;;;2.60;;
37891;SDS011;45797;47.466;9.486;2023-02-28T09:10:25;5.93;;;2.63;;
37891;SDS011;45797;47.466;9.486;2023-02-28T09:15:26;5.77;;;2.67;;
37891;SDS011;45797;47.466;9.486;2023-02-28T09:25:30;6.87;;;3.23;;
37891;SDS011;45797;47.466;9.486;2023-02-28T09:30:31;5.30;;;2.57;;
37891;SDS011;45797;47.466;9.486;2023-02-28T09:40:37;5.50;;;2.97;;
37891;SDS011;45797;47.466;9.486;2023-02-28T09:46:37;6.67;;;2.73;;
37891;SDS011;45797;47.466;9.486;2023-02-28T09:57:10;5.57;;;2.53;;
37891;SDS011;45797;47.466;9.486;2023-02-28T10:07:58;6.40;;;3.10;;
37891;SDS011;45797;47.466;9.486;2023-02-28T10:13:06;5.88;;;2.90;;
37891;SDS011;45797;47.466;9.486;2023-02-28T10:18:16;7.45;;;2.83;;
37891;SDS011;45797;47.466;9.486;2023-02-28T10:28:25;4.75;;;2.75;;
37891;SDS011;45797;47.466;9.486;2023-02-28T10:33:33;6.32;;;3.00;;
37891;SDS011;45797;47.466;9.486;2023-02-28T10:38:37;7.32;;;2.80;;
37891;SDS011;45797;47.466;9.486;2023-02-28T10:43:44;10.07;;;3.17;;
37891;SDS011;45797;47.466;9.486;2023-02-28T10:48:46;6.50;;;2.75;;
37891;SDS011;45797;47.466;9.486;2023-02-28T10:53:56;5.70;;;3.03;;
37891;SDS011;45797;47.466;9.486;2023-02-28T11:14:47;8.73;;;3.15;;
37891;SDS011;45797;47.466;9.486;2023-02-28T11:19:59;7.35;;;2.80;;
37891;SDS011;45797;47.466;9.486;2023-02-28T11:36:02;8.48;;;3.50;;
37891;SDS011;45797;47.466;9.486;2023-02-28T11:46:47;5.82;;;3.20;;
37891;SDS011;45797;47.466;9.486;2023-02-28T12:03:15;7.35;;;2.97;;
37891;SDS011;45797;47.466;9.486;2023-02-28T12:19:35;6.32;;;3.40;;
37891;SDS011;45797;47.466;9.486;2023-02-28T12:30:08;7.13;;;3.38;;
37891;SDS011;45797;47.466;9.486;2023-02-28T12:46:03;5.28;;;2.75;;
37891;SDS011;45797;47.466;9.486;2023-02-28T12:51:19;7.50;;;3.42;;
37891;SDS011;45797;47.466;9.486;2023-02-28T13:02:01;6.43;;;3.00;;
37891;SDS011;45797;47.466;9.486;2023-02-28T13:17:49;7.80;;;3.15;;
37891;SDS011;45797;47.466;9.486;2023-02-28T13:22:53;7.95;;;3.45;;
37891;SDS011;45797;47.466;9.486;2023-02-28T13:27:55;5.75;;;2.92;;
37891;SDS011;45797;47.466;9.486;2023-02-28T13:38:35;9.02;;;3.65;;
37891;SDS011;45797;47.466;9.486;2023-02-28T14:10:41;8.20;;;3.75;;
37891;SDS011;45797;47.466;9.486;2023-02-28T14:37:13;6.72;;;3.30;;
37891;SDS011;45797;47.466;9.486;2023-02-28T14:42:32;6.00;;;3.25;;
37891;SDS011;45797;47.466;9.486;2023-02-28T14:47:34;7.45;;;3.33;;
37891;SDS011;45797;47.466;9.486;2023-02-28T14:52:37;8.57;;;3.88;;
37891;SDS011;45797;47.466;9.486;2023-02-28T15:03:30;7.53;;;3.60;;
37891;SDS011;45797;47.466;9.486;2023-02-28T15:08:34;7.45;;;4.03;;
37891;SDS011;45797;47.466;9.486;2023-02-28T15:13:47;7.03;;;3.60;;
37891;SDS011;45797;47.466;9.486;2023-02-28T15:29:13;9.30;;;4.32;;
37891;SDS011;45797;47.466;9.486;2023-02-28T15:39:40;9.73;;;4.28;;
37891;SDS011;45797;47.466;9.486;2023-02-28T15:54:51;8.82;;;3.72;;
37891;SDS011;45797;47.466;9.486;2023-02-28T16:00:03;9.37;;;4.33;;
37891;SDS011;45797;47.466;9.486;2023-02-28T16:10:28;8.20;;;3.88;;
37891;SDS011;45797;47.466;9.486;2023-02-28T16:15:30;9.77;;;4.75;;
37891;SDS011;45797;47.466;9.486;2023-02-28T16:25:48;9.87;;;4.17;;
37891;SDS011;45797;47.466;9.486;2023-02-28T16:30:52;8.37;;;3.60;;
37891;SDS011;45797;47.466;9.486;2023-02-28T16:35:55;8.70;;;4.43;;
37891;SDS011;45797;47.466;9.486;2023-02-28T16:41:03;13.10;;;4.40;;
37891;SDS011;45797;47.466;9.486;2023-02-28T16:46:07;10.90;;;4.53;;
37891;SDS011;45797;47.466;9.486;2023-02-28T17:01:26;9.43;;;4.20;;
37891;SDS011;45797;47.466;9.486;2023-02-28T17:06:27;11.45;;;4.15;;
37891;SDS011;45797;47.466;9.486;2023-02-28T17:11:38;9.02;;;4.57;;
37891;SDS011;45797;47.466;9.486;2023-02-28T17:21:46;8.60;;;4.10;;
37891;SDS011;45797;47.466;9.486;2023-02-28T17:26:48;11.33;;;4.93;;
37891;SDS011;45797;47.466;9.486;2023-02-28T17:31:51;9.13;;;4.03;;
37891;SDS011;45797;47.466;9.486;2023-02-28T17:36:51;12.33;;;4.73;;
37891;SDS011;45797;47.466;9.486;2023-02-28T17:42:07;8.33;;;3.87;;
37891;SDS011;45797;47.466;9.486;2023-02-28T17:47:08;9.27;;;4.43;;
37891;SDS011;45797;47.466;9.486;2023-02-28T17:52:17;8.03;;;3.60;;
37891;SDS011;45797;47.466;9.486;2023-02-28T17:57:17;10.70;;;4.30;;
37891;SDS011;45797;47.466;9.486;2023-02-28T18:02:19;9.83;;;4.30;;
37891;SDS011;45797;47.466;9.486;2023-02-28T18:07:26;10.47;;;4.33;;
37891;SDS011;45797;47.466;9.486;2023-02-28T18:12:27;8.27;;;3.87;;
37891;SDS011;45797;47.466;9.486;2023-02-28T18:17:38;9.37;;;4.23;;
37891;SDS011;45797;47.466;9.486;2023-02-28T18:27:44;11.57;;;4.30;;
37891;SDS011;45797;47.466;9.486;2023-02-28T18:32:57;10.27;;;4.77;;
37891;SDS011;45797;47.466;9.486;2023-02-28T18:38:12;13.50;;;6.00;;
37891;SDS011;45797;47.466;9.486;2023-02-28T18:43:21;11.47;;;4.67;;
37891;SDS011;45797;47.466;9.486;2023-02-28T18:48:22;11.40;;;4.97;;
37891;SDS011;45797;47.466;9.486;2023-02-28T18:53:30;11.27;;;4.43;;
37891;SDS011;45797;47.466;9.486;2023-02-28T18:58:41;8.43;;;3.63;;
37891;SDS011;45797;47.466;9.486;2023-02-28T19:03:43;8.43;;;4.17;;
37891;SDS011;45797;47.466;9.486;2023-02-28T19:08:44;9.37;;;4.07;;
37891;SDS011;45797;47.466;9.486;2023-02-28T19:13:45;7.70;;;4.60;;
37891;SDS011;45797;47.466;9.486;2023-02-28T19:18:55;8.60;;;3.93;;
37891;SDS011;45797;47.466;9.486;2023-02-28T19:24:01;9.47;;;4.00;;
37891;SDS011;45797;47.466;9.486;2023-02-28T19:39:26;10.00;;;4.00;;
37891;SDS011;45797;47.466;9.486;2023-02-28T19:44:26;8.83;;;4.07;;
37891;SDS011;45797;47.466;9.486;2023-02-28T19:49:26;10.17;;;4.40;;
37891;SDS011;45797;47.466;9.486;2023-02-28T19:54:27;11.05;;;4.03;;
37891;SDS011;45797;47.466;9.486;2023-02-28T19:59:30;9.20;;;4.13;;
37891;SDS011;45797;47.466;9.486;2023-02-28T20:04:31;9.63;;;3.70;;
37891;SDS011;45797;47.466;9.486;2023-02-28T20:14:44;10.23;;;4.23;;
37891;SDS011;45797;47.466;9.486;2023-02-28T20:19:47;10.73;;;4.47;;
37891;SDS011;45797;47.466;9.486;2023-02-28T20:24:50;9.90;;;4.33;;
37891;SDS011;45797;47.466;9.486;2023-02-28T20:40:04;11.63;;;4.43;;
37891;SDS011;45797;47.466;9.486;2023-02-28T20:45:06;9.73;;;3.90;;
37891;SDS011;45797;47.466;9.486;2023-02-28T20:50:08;11.70;;;4.40;;
37891;SDS011;45797;47.466;9.486;2023-02-28T20:55:09;8.30;;;3.93;;
37891;SDS011;45797;47.466;9.486;2023-02-28T21:00:13;9.63;;;4.00;;
37891;SDS011;45797;47.466;9.486;2023-02-28T21:05:19;11.07;;;4.70;;
37891;SDS011;45797;47.466;9.486;2023-02-28T21:10:19;8.70;;;4.77;;
37891;SDS011;45797;47.466;9.486;2023-02-28T21:15:35;11.90;;;4.40;;
37891;SDS011;45797;47.466;9.486;2023-02-28T21:20:37;9.63;;;3.97;;
37891;SDS011;45797;47.466;9.486;2023-02-28T21:25:38;10.63;;;5.13;;
37891;SDS011;45797;47.466;9.486;2023-02-28T21:30:40;9.63;;;4.17;;
37891;SDS011;45797;47.466;9.486;2023-02-28T21:46:08;8.63;;;3.97;;
37891;SDS011;45797;47.466;9.486;2023-02-28T21:51:11;9.97;;;3.80;;
37891;SDS011;45797;47.466;9.486;2023-02-28T21:56:16;9.23;;;3.63;;
37891;SDS011;45797;47.466;9.486;2023-02-28T22:01:20;7.93;;;4.17;;
37891;SDS011;45797;47.466;9.486;2023-02-28T22:06:24;10.13;;;4.60;;
37891;SDS011;45797;47.466;9.486;2023-02-28T22:11:26;9.43;;;5.07;;
37891;SDS011;45797;47.466;9.486;2023-02-28T22:21:34;11.00;;;5.13;;
37891;SDS011;45797;47.466;9.486;2023-02-28T22:26:36;11.07;;;4.37;;
37891;SDS011;45797;47.466;9.486;2023-02-28T22:31:36;11.43;;;5.80;;
37891;SDS011;45797;47.466;9.486;2023-02-28T22:41:52;12.67;;;5.47;;
37891;SDS011;45797;47.466;9.486;2023-02-28T22:46:54;11.47;;;4.87;;
37891;SDS011;45797;47.466;9.486;2023-02-28T22:51:54;11.00;;;4.80;;
37891;SDS011;45797;47.466;9.486;2023-02-28T22:56:54;9.30;;;4.63;;
37891;SDS011;45797;47.466;9.486;2023-02-28T23:01:56;9.47;;;4.63;;
37891;SDS011;45797;47.466;9.486;2023-02-28T23:06:57;11.27;;;4.83;;
37891;SDS011;45797;47.466;9.486;2023-02-28T23:11:57;10.77;;;4.90;;
37891;SDS011;45797;47.466;9.486;2023-02-28T23:16:57;10.57;;;4.23;;
37891;SDS011;45797;47.466;9.486;2023-02-28T23:22:13;11.57;;;4.87;;
37891;SDS011;45797;47.466;9.486;2023-02-28T23:27:15;11.40;;;5.07;;
37891;SDS011;45797;47.466;9.486;2023-02-28T23:32:23;11.50;;;5.30;;
37891;SDS011;45797;47.466;9.486;2023-02-28T23:37:24;14.77;;;4.80;;
37891;SDS011;45797;47.466;9.486;2023-02-28T23:42:24;11.53;;;5.13;;
37891;SDS011;45797;47.466;9.486;2023-02-28T23:47:25;10.20;;;4.60;;
37891;SDS011;45797;47.466;9.486;2023-02-28T23:52:26;12.53;;;4.67;;
37891;SDS011;45797;47.466;9.486;2023-02-28T23:57:28;10.13;;;3.80;;
